Anaya — WDE5689 — position and weather

sailwx.info

Track history (hours):
 
Tides and Currents Weather Stations Pressure Air Temp Water Temp Dewpoint Dewpoint Depression Visibility Wind Speed Wind Dir Waves Ship Positions

Anaya

More information available from US FCC via Universal Licensing System and Coast Guard Vessel Documentation Center.

Last reported at 2014-Jul-09 19:33 UTC. Time now 2014-Aug-21 20:01 UTC.
Position N 49°54' W 124°40'.
Warning: this ship's position is 43 days out of date.

; draft 2 m.

Type: Pleasure craft. MMSI: 367370340.

Date/timePositionNaut miles runAvg speedWind from/ knotsBaromVisibWave heightAir tempDewpointWater temp
2014-Jul-09 19:33N 49°54' W 124°40'1211.7
2014-Jul-09 18:33N 49°45' W 124°27'1110.6
2014-Jul-09 17:33N 49°39' W 124°14'1111.1
2014-Jul-09 16:33N 49°32' W 124°00'1111.2
2014-Jul-09 15:33N 49°25' W 123°47'1010.0
2014-Jul-09 14:33N 49°21' W 123°33'9 9.3
2014-Jul-09 13:33N 49°19' W 123°19'7 7.5
2014-Jul-09 12:33N 49°17' W 123°07'0 0.0
2014-Jul-09 11:33N 49°17' W 123°07'0 0.0
2014-Jul-09 10:33N 49°17' W 123°07'0 0.0
2014-Jul-09 09:33N 49°17' W 123°07'0 0.0
2014-Jul-09 08:33N 49°17' W 123°07'0 0.0
2014-Jul-09 07:33N 49°17' W 123°07'0 0.0
2014-Jul-09 06:33N 49°18' W 123°07'0 0.0
2014-Jul-09 05:33N 49°17' W 123°07'0 0.0
2014-Jul-09 04:33N 49°17' W 123°07'0 0.0
2014-Jul-09 03:33N 49°17' W 123°07'0 0.0
2014-Jul-09 02:33N 49°18' W 123°07'0 0.0
2014-Jul-09 01:33N 49°17' W 123°07'0 0.0
2014-Jul-09 00:33N 49°17' W 123°07'0 0.0
2014-Jul-08 23:33N 49°17' W 123°07'0 0.1
2014-Jul-08 22:33N 49°17' W 123°08'0 0.1
2014-Jul-08 21:33N 49°17' W 123°07'0 0.0
2014-Jul-08 20:33N 49°17' W 123°07'0 0.0
2014-Jul-08 19:33N 49°17' W 123°07'0 0.0
2014-Jul-08 18:33N 49°17' W 123°07'0 0.0
2014-Jul-08 17:33N 49°17' W 123°07'0 0.0
2014-Jul-08 16:33N 49°17' W 123°07'0 0.0
2014-Jul-08 15:33N 49°17' W 123°07'0 0.0
2014-Jul-08 14:33N 49°17' W 123°07'0 0.0
2014-Jul-08 13:33N 49°17' W 123°07'0 0.0
2014-Jul-08 12:33N 49°17' W 123°07'0 0.0
2014-Jul-08 11:33N 49°17' W 123°07'0 0.0
2014-Jul-08 10:33N 49°17' W 123°07'0 0.0
2014-Jul-08 09:33N 49°17' W 123°07'0 0.0
2014-Jul-08 08:33N 49°17' W 123°07'0 0.0
2014-Jul-08 07:33N 49°17' W 123°07'0 0.0
2014-Jul-08 06:33N 49°18' W 123°07'0 0.0
2014-Jul-08 05:33N 49°17' W 123°07'0 0.0
2014-Jul-08 04:33N 49°18' W 123°07'0 0.0
2014-Jul-08 03:33N 49°17' W 123°07'0 0.0
2014-Jul-08 02:33N 49°18' W 123°07'0 0.0
2014-Jul-08 01:33N 49°17' W 123°07'0 0.0
2014-Jul-08 00:33N 49°18' W 123°07'0 0.0
2014-Jul-07 23:33N 49°18' W 123°07'0 0.0
2014-Jul-07 22:33N 49°17' W 123°07'0 0.0
2014-Jul-07 21:33N 49°17' W 123°07'0 0.0
2014-Jul-07 20:33N 49°17' W 123°07'0 0.0
2014-Jul-07 19:33N 49°17' W 123°07'0 0.0
2014-Jul-07 18:33N 49°17' W 123°07'0 0.0
2014-Jul-07 17:33N 49°17' W 123°07'0 0.0
2014-Jul-07 16:33N 49°17' W 123°07'0 0.0
2014-Jul-07 15:33N 49°17' W 123°07'0 0.0
2014-Jul-07 14:33N 49°17' W 123°07'0 0.0
2014-Jul-07 13:33N 49°17' W 123°07'0 0.0
2014-Jul-07 12:33N 49°17' W 123°07'0 0.0
2014-Jul-07 11:33N 49°17' W 123°07'0 0.0
2014-Jul-07 10:33N 49°17' W 123°07'0 0.0
2014-Jul-07 09:33N 49°17' W 123°07'0 0.0
2014-Jul-07 08:33N 49°17' W 123°07'0 0.0
2014-Jul-07 07:33N 49°17' W 123°07'0 0.0
2014-Jul-07 06:33N 49°17' W 123°07'0 0.0
2014-Jul-07 05:33N 49°17' W 123°07'0 0.0
2014-Jul-07 04:33N 49°17' W 123°07'0 0.0
2014-Jul-07 03:33N 49°17' W 123°07'0 0.0
2014-Jul-07 02:33N 49°17' W 123°07'0 0.0
2014-Jul-07 01:33N 49°17' W 123°07'0 0.0
2014-Jul-07 00:33N 49°17' W 123°07'0 0.0
2014-Jul-06 23:33N 49°17' W 123°07'0 0.0
2014-Jul-06 22:33N 49°17' W 123°07'0 0.0
2014-Jul-06 21:33N 49°17' W 123°07'0 0.0
2014-Jul-06 20:33N 49°17' W 123°07'1 0.6
2014-Jul-06 19:33N 49°18' W 123°07'1010.0
2014-Jul-06 18:33N 49°14' W 123°21'1111.3
2014-Jul-06 17:33N 49°05' W 123°31'10 9.5
2014-Jul-06 16:33N 48°55' W 123°30'4 3.8
2014-Jul-06 15:33N 48°51' W 123°30'0 0.0
2014-Jul-06 14:33N 48°51' W 123°30'0 0.0
2014-Jul-06 13:33N 48°51' W 123°30'0 0.0
2014-Jul-06 12:33N 48°51' W 123°30'0 0.0
2014-Jul-06 11:33N 48°51' W 123°30'0 0.0
2014-Jul-06 10:33N 48°51' W 123°30'0 0.0
2014-Jul-06 09:33N 48°51' W 123°30'0 0.0
2014-Jul-06 08:33N 48°51' W 123°30'0 0.0
2014-Jul-06 07:33N 48°51' W 123°30'0 0.0
2014-Jul-06 06:33N 48°51' W 123°30'0 0.0
2014-Jul-06 05:33N 48°51' W 123°30'0 0.0
2014-Jul-06 04:33N 48°51' W 123°30'0 0.0
2014-Jul-06 03:33N 48°51' W 123°30'0 0.0
2014-Jul-06 02:33N 48°51' W 123°30'0 0.0
2014-Jul-06 01:33N 48°51' W 123°30'0 0.0
2014-Jul-06 00:33N 48°51' W 123°30'0 0.0
2014-Jul-05 23:33N 48°51' W 123°30'0 0.0
2014-Jul-05 22:33N 48°51' W 123°30'1 0.6
2014-Jul-05 21:33N 48°51' W 123°29'1010.2
2014-Jul-05 20:31N 48°45' W 123°16'5 5.0
2014-Jul-05 19:33N 48°40' W 123°14'5 4.2
2014-Jul-05 18:29N 48°37' W 123°09'0 0.0
2014-Jul-05 17:29N 48°37' W 123°09'0 0.0
2014-Jul-05 16:33N 48°37' W 123°09'0 0.0
2014-Jul-04 04:08N 48°37' W 123°09'0 0.0
2014-Jul-04 03:33N 48°37' W 123°09'0 0.0
2014-Jul-04 02:32N 48°37' W 123°09'0 0.0
2014-Jul-04 01:33N 48°37' W 123°09'0 0.0
2014-Jul-04 00:33N 48°37' W 123°09'0 0.0
2014-Jul-03 23:33N 48°37' W 123°09'0 0.0
2014-Jul-03 22:33N 48°37' W 123°09'0 0.0
2014-Jul-03 21:33N 48°37' W 123°09'0 0.0
2014-Jul-03 20:33N 48°37' W 123°09'  
Track history (hours):
 
Tides and Currents Weather Stations Pressure Air Temp Water Temp Dewpoint Dewpoint Depression Visibility Wind Speed Wind Dir Waves Ship Positions

Anaya

More information available from US FCC via Universal Licensing System and Coast Guard Vessel Documentation Center.

Last reported at 2014-Jul-09 19:33 UTC. Time now 2014-Aug-21 20:01 UTC.
Position N 49°54' W 124°40'.
Warning: this ship's position is 43 days out of date.

; draft 2 m.

Type: Pleasure craft. MMSI: 367370340.

Date/timePositionNaut miles runAvg speedWind from/ knotsBaromVisibWave heightAir tempDewpointWater temp
2014-Jul-09 19:33N 49°54' W 124°40'1211.7
2014-Jul-09 18:33N 49°45' W 124°27'1110.6
2014-Jul-09 17:33N 49°39' W 124°14'1111.1
2014-Jul-09 16:33N 49°32' W 124°00'1111.2
2014-Jul-09 15:33N 49°25' W 123°47'1010.0
2014-Jul-09 14:33N 49°21' W 123°33'9 9.3
2014-Jul-09 13:33N 49°19' W 123°19'7 7.5
2014-Jul-09 12:33N 49°17' W 123°07'0 0.0
2014-Jul-09 11:33N 49°17' W 123°07'0 0.0
2014-Jul-09 10:33N 49°17' W 123°07'0 0.0
2014-Jul-09 09:33N 49°17' W 123°07'0 0.0
2014-Jul-09 08:33N 49°17' W 123°07'0 0.0
2014-Jul-09 07:33N 49°17' W 123°07'0 0.0
2014-Jul-09 06:33N 49°18' W 123°07'0 0.0
2014-Jul-09 05:33N 49°17' W 123°07'0 0.0
2014-Jul-09 04:33N 49°17' W 123°07'0 0.0
2014-Jul-09 03:33N 49°17' W 123°07'0 0.0
2014-Jul-09 02:33N 49°18' W 123°07'0 0.0
2014-Jul-09 01:33N 49°17' W 123°07'0 0.0
2014-Jul-09 00:33N 49°17' W 123°07'0 0.0
2014-Jul-08 23:33N 49°17' W 123°07'0 0.1
2014-Jul-08 22:33N 49°17' W 123°08'0 0.1
2014-Jul-08 21:33N 49°17' W 123°07'0 0.0
2014-Jul-08 20:33N 49°17' W 123°07'0 0.0
2014-Jul-08 19:33N 49°17' W 123°07'0 0.0
2014-Jul-08 18:33N 49°17' W 123°07'0 0.0
2014-Jul-08 17:33N 49°17' W 123°07'0 0.0
2014-Jul-08 16:33N 49°17' W 123°07'0 0.0
2014-Jul-08 15:33N 49°17' W 123°07'0 0.0
2014-Jul-08 14:33N 49°17' W 123°07'0 0.0
2014-Jul-08 13:33N 49°17' W 123°07'0 0.0
2014-Jul-08 12:33N 49°17' W 123°07'0 0.0
2014-Jul-08 11:33N 49°17' W 123°07'0 0.0
2014-Jul-08 10:33N 49°17' W 123°07'0 0.0
2014-Jul-08 09:33N 49°17' W 123°07'0 0.0
2014-Jul-08 08:33N 49°17' W 123°07'0 0.0
2014-Jul-08 07:33N 49°17' W 123°07'0 0.0
2014-Jul-08 06:33N 49°18' W 123°07'0 0.0
2014-Jul-08 05:33N 49°17' W 123°07'0 0.0
2014-Jul-08 04:33N 49°18' W 123°07'0 0.0
2014-Jul-08 03:33N 49°17' W 123°07'0 0.0
2014-Jul-08 02:33N 49°18' W 123°07'0 0.0
2014-Jul-08 01:33N 49°17' W 123°07'0 0.0
2014-Jul-08 00:33N 49°18' W 123°07'0 0.0
2014-Jul-07 23:33N 49°18' W 123°07'0 0.0
2014-Jul-07 22:33N 49°17' W 123°07'0 0.0
2014-Jul-07 21:33N 49°17' W 123°07'0 0.0
2014-Jul-07 20:33N 49°17' W 123°07'0 0.0
2014-Jul-07 19:33N 49°17' W 123°07'0 0.0
2014-Jul-07 18:33N 49°17' W 123°07'0 0.0
2014-Jul-07 17:33N 49°17' W 123°07'0 0.0
2014-Jul-07 16:33N 49°17' W 123°07'0 0.0
2014-Jul-07 15:33N 49°17' W 123°07'0 0.0
2014-Jul-07 14:33N 49°17' W 123°07'0 0.0
2014-Jul-07 13:33N 49°17' W 123°07'0 0.0
2014-Jul-07 12:33N 49°17' W 123°07'0 0.0
2014-Jul-07 11:33N 49°17' W 123°07'0 0.0
2014-Jul-07 10:33N 49°17' W 123°07'0 0.0
2014-Jul-07 09:33N 49°17' W 123°07'0 0.0
2014-Jul-07 08:33N 49°17' W 123°07'0 0.0
2014-Jul-07 07:33N 49°17' W 123°07'0 0.0
2014-Jul-07 06:33N 49°17' W 123°07'0 0.0
2014-Jul-07 05:33N 49°17' W 123°07'0 0.0
2014-Jul-07 04:33N 49°17' W 123°07'0 0.0
2014-Jul-07 03:33N 49°17' W 123°07'0 0.0
2014-Jul-07 02:33N 49°17' W 123°07'0 0.0
2014-Jul-07 01:33N 49°17' W 123°07'0 0.0
2014-Jul-07 00:33N 49°17' W 123°07'0 0.0
2014-Jul-06 23:33N 49°17' W 123°07'0 0.0
2014-Jul-06 22:33N 49°17' W 123°07'0 0.0
2014-Jul-06 21:33N 49°17' W 123°07'0 0.0
2014-Jul-06 20:33N 49°17' W 123°07'1 0.6
2014-Jul-06 19:33N 49°18' W 123°07'1010.0
2014-Jul-06 18:33N 49°14' W 123°21'1111.3
2014-Jul-06 17:33N 49°05' W 123°31'10 9.5
2014-Jul-06 16:33N 48°55' W 123°30'4 3.8
2014-Jul-06 15:33N 48°51' W 123°30'0 0.0
2014-Jul-06 14:33N 48°51' W 123°30'0 0.0
2014-Jul-06 13:33N 48°51' W 123°30'0 0.0
2014-Jul-06 12:33N 48°51' W 123°30'0 0.0
2014-Jul-06 11:33N 48°51' W 123°30'0 0.0
2014-Jul-06 10:33N 48°51' W 123°30'0 0.0
2014-Jul-06 09:33N 48°51' W 123°30'0 0.0
2014-Jul-06 08:33N 48°51' W 123°30'0 0.0
2014-Jul-06 07:33N 48°51' W 123°30'0 0.0
2014-Jul-06 06:33N 48°51' W 123°30'0 0.0
2014-Jul-06 05:33N 48°51' W 123°30'0 0.0
2014-Jul-06 04:33N 48°51' W 123°30'0 0.0
2014-Jul-06 03:33N 48°51' W 123°30'0 0.0
2014-Jul-06 02:33N 48°51' W 123°30'0 0.0
2014-Jul-06 01:33N 48°51' W 123°30'0 0.0
2014-Jul-06 00:33N 48°51' W 123°30'0 0.0
2014-Jul-05 23:33N 48°51' W 123°30'0 0.0
2014-Jul-05 22:33N 48°51' W 123°30'1 0.6
2014-Jul-05 21:33N 48°51' W 123°29'1010.2
2014-Jul-05 20:31N 48°45' W 123°16'5 5.0
2014-Jul-05 19:33N 48°40' W 123°14'5 4.2
2014-Jul-05 18:29N 48°37' W 123°09'0 0.0
2014-Jul-05 17:29N 48°37' W 123°09'0 0.0
2014-Jul-05 16:33N 48°37' W 123°09'0 0.0
2014-Jul-04 04:08N 48°37' W 123°09'0 0.0
2014-Jul-04 03:33N 48°37' W 123°09'0 0.0
2014-Jul-04 02:32N 48°37' W 123°09'0 0.0
2014-Jul-04 01:33N 48°37' W 123°09'0 0.0
2014-Jul-04 00:33N 48°37' W 123°09'0 0.0
2014-Jul-03 23:33N 48°37' W 123°09'0 0.0
2014-Jul-03 22:33N 48°37' W 123°09'0 0.0
2014-Jul-03 21:33N 48°37' W 123°09'0 0.0
2014-Jul-03 20:33N 48°37' W 123°09'  

Dump ship's entire track history